Aviation Digital Data Service (ADDS)

Output produced by METARs form (0042 UTC 17 January 2017)
found at http://aviationweather.gov/adds/metars/
 
KDFW 162336Z 1700/1806 33007KT P6SM SCT300 
     FM171100 36006KT P6SM SCT025 BKN100 
     FM172300 01006KT P6SM VCSH BKN035 
     FM180300 02006KT 6SM -RA OVC015